Aviation Digital Data Service (ADDS)

Output produced by METARs form (1131 UTC 21 February 2018)
found at http://aviationweather.gov/adds/metars/
 
KRIC 201143Z 2012/2112 19003KT 1SM -DZ BR OVC003 
     TEMPO 2012/2013 1/2SM FG OVC002 
     FM201600 21007KT 4SM BR OVC005 
     FM201800 22008KT P6SM BKN010 
     FM202000 21008KT P6SM BKN015 
     FM202100 21008KT P6SM SCT020 
     FM210400 20006KT 4SM BR SCT040 
     FM210700 20006KT 2SM BR SCT006